createdAt,value
2019-02-25T00:00:56.448Z,26.80
2019-02-25T00:01:56.450Z,26.75
2019-02-25T00:02:56.450Z,26.81
2019-02-25T00:03:56.450Z,26.76
2019-02-25T00:04:56.503Z,26.76
2019-02-25T00:05:56.455Z,26.76
2019-02-25T00:06:56.459Z,26.72
2019-02-25T00:07:56.461Z,26.76
2019-02-25T00:08:56.464Z,26.67
2019-02-25T00:09:56.467Z,26.69
2019-02-25T00:10:56.469Z,26.70
2019-02-25T00:11:56.472Z,26.73
2019-02-25T00:12:56.474Z,26.72
2019-02-25T00:13:56.530Z,26.70
2019-02-25T00:14:56.480Z,26.70
2019-02-25T00:15:56.482Z,26.72
2019-02-25T00:16:56.486Z,26.70
2019-02-25T00:17:56.488Z,26.81
2019-02-25T00:18:56.495Z,26.82
2019-02-25T00:19:56.493Z,26.80
2019-02-25T00:20:56.495Z,26.72
2019-02-25T00:21:56.500Z,26.76
2019-02-25T00:22:56.502Z,26.84
2019-02-25T00:23:56.604Z,26.70
2019-02-25T00:24:56.507Z,26.73
2019-02-25T00:25:56.515Z,26.75
2019-02-25T00:26:56.511Z,26.75
2019-02-25T00:27:56.515Z,26.72
2019-02-25T00:28:56.567Z,26.69
2019-02-25T00:29:56.518Z,26.72
2019-02-25T00:30:56.526Z,26.70
2019-02-25T00:31:56.526Z,26.76
2019-02-25T00:32:56.528Z,26.72
2019-02-25T00:33:56.531Z,26.72
2019-02-25T00:34:56.537Z,26.77
2019-02-25T00:35:56.536Z,26.81
2019-02-25T00:36:56.539Z,26.72
2019-02-25T00:37:56.542Z,26.73
2019-02-25T00:38:56.545Z,26.72
2019-02-25T00:39:56.547Z,26.70
2019-02-25T00:40:56.550Z,26.72
2019-02-25T00:41:56.552Z,26.73
2019-02-25T00:42:56.555Z,26.76
2019-02-25T00:43:56.557Z,26.73
2019-02-25T00:44:56.562Z,26.63
2019-02-25T00:45:56.611Z,26.72
2019-02-25T00:46:56.566Z,26.77
2019-02-25T00:47:56.569Z,26.73
2019-02-25T00:48:56.571Z,26.70
2019-02-25T00:49:56.575Z,26.65
2019-02-25T00:50:56.577Z,26.73
2019-02-25T00:51:56.582Z,26.75
2019-02-25T00:52:56.582Z,26.81
2019-02-25T00:53:56.586Z,26.63
2019-02-25T00:54:56.593Z,26.76
2019-02-25T00:55:56.590Z,26.76
2019-02-25T00:56:56.595Z,26.70
2019-02-25T00:57:56.598Z,26.73
2019-02-25T00:58:56.600Z,26.70
2019-02-25T00:59:56.600Z,26.77
2019-02-25T01:00:56.619Z,26.67
2019-02-25T01:01:56.607Z,26.63
2019-02-25T01:02:56.610Z,26.75
2019-02-25T01:03:56.612Z,26.70
2019-02-25T01:04:56.614Z,26.70
2019-02-25T01:05:56.617Z,26.67
2019-02-25T01:06:56.621Z,26.73
2019-02-25T01:07:56.625Z,26.67
2019-02-25T01:08:56.625Z,26.72
2019-02-25T01:09:56.629Z,26.75
2019-02-25T01:10:56.631Z,26.77
2019-02-25T01:11:56.635Z,26.76
2019-02-25T01:12:56.638Z,26.76
2019-02-25T01:13:56.647Z,26.72
2019-02-25T01:14:56.643Z,26.73
2019-02-25T01:15:56.644Z,26.76
2019-02-25T01:16:56.648Z,26.70
2019-02-25T01:17:56.650Z,26.72
2019-02-25T01:18:56.659Z,26.76
2019-02-25T01:19:56.709Z,26.76
2019-02-25T01:20:56.659Z,26.75
2019-02-25T01:21:56.661Z,26.72
2019-02-25T01:22:56.663Z,26.80
2019-02-25T01:23:56.669Z,26.77
2019-02-25T01:24:56.669Z,26.75
2019-02-25T01:25:56.723Z,26.75
2019-02-25T01:26:56.681Z,26.67
2019-02-25T01:27:56.680Z,26.73
2019-02-25T01:28:56.682Z,26.77
2019-02-25T01:29:56.685Z,26.72
2019-02-25T01:30:56.687Z,26.81
2019-02-25T01:31:56.689Z,26.77
2019-02-25T01:32:56.691Z,26.76
2019-02-25T01:33:56.693Z,26.66
2019-02-25T01:34:56.696Z,26.75
2019-02-25T01:35:56.699Z,26.62
2019-02-25T01:36:56.710Z,26.72
2019-02-25T01:37:56.703Z,26.72
2019-02-25T01:38:56.714Z,26.67
2019-02-25T01:39:56.710Z,26.76
2019-02-25T01:40:56.713Z,26.75
2019-02-25T01:41:56.714Z,26.62
2019-02-25T01:42:56.717Z,26.69
2019-02-25T01:43:56.735Z,26.66
2019-02-25T01:44:56.723Z,26.72
2019-02-25T01:45:56.725Z,26.76
2019-02-25T01:46:56.728Z,26.75
2019-02-25T01:47:56.732Z,26.73
2019-02-25T01:48:56.734Z,26.72
2019-02-25T01:49:56.739Z,26.72
2019-02-25T01:50:56.741Z,26.69
2019-02-25T01:51:56.744Z,26.77
2019-02-25T01:52:56.744Z,26.72
2019-02-25T01:53:56.746Z,26.81
2019-02-25T01:54:56.750Z,26.72
2019-02-25T01:55:56.754Z,26.70
2019-02-25T01:56:56.758Z,26.69
2019-02-25T01:57:56.758Z,26.81
2019-02-25T01:58:56.762Z,26.69
2019-02-25T01:59:56.763Z,26.77
2019-02-25T02:00:56.766Z,26.73
2019-02-25T02:01:56.768Z,26.72
2019-02-25T02:02:56.775Z,26.73
2019-02-25T02:03:56.777Z,26.67
2019-02-25T02:04:56.776Z,26.65
2019-02-25T02:05:56.782Z,26.77
2019-02-25T02:06:56.786Z,26.75
2019-02-25T02:07:56.784Z,26.75
2019-02-25T02:08:56.788Z,26.76
2019-02-25T02:09:56.847Z,26.73
2019-02-25T02:10:56.794Z,26.81
2019-02-25T02:11:56.795Z,26.75
2019-02-25T02:12:56.798Z,26.76
2019-02-25T02:13:56.851Z,26.76
2019-02-25T02:14:56.804Z,26.62
2019-02-25T02:15:56.812Z,26.66
2019-02-25T02:16:56.810Z,26.69
2019-02-25T02:17:56.811Z,26.76
2019-02-25T02:18:56.823Z,26.69
2019-02-25T02:19:56.831Z,26.81
2019-02-25T02:20:56.825Z,26.70
2019-02-25T02:21:56.827Z,26.72
2019-02-25T02:22:56.830Z,26.76
2019-02-25T02:23:56.829Z,26.70
2019-02-25T02:24:56.831Z,26.73
2019-02-25T02:25:56.835Z,26.72
2019-02-25T02:26:56.836Z,26.76
2019-02-25T02:27:56.839Z,26.67
2019-02-25T02:28:56.841Z,26.70
2019-02-25T02:29:56.852Z,26.69
2019-02-25T02:30:56.860Z,26.72
2019-02-25T02:31:56.850Z,26.69
2019-02-25T02:32:56.862Z,26.72
2019-02-25T02:33:56.854Z,26.82
2019-02-25T02:34:56.858Z,26.63
2019-02-25T02:35:56.861Z,26.70
2019-02-25T02:36:56.864Z,26.67
2019-02-25T02:37:56.868Z,26.76
2019-02-25T02:38:56.870Z,26.72
2019-02-25T02:39:56.922Z,26.67
2019-02-25T02:40:56.873Z,26.70
2019-02-25T02:41:56.876Z,26.77
2019-02-25T02:42:56.879Z,26.70
2019-02-25T02:43:56.881Z,26.75
2019-02-25T02:44:56.889Z,26.73
2019-02-25T02:45:56.888Z,26.81
2019-02-25T02:46:56.890Z,26.69
2019-02-25T02:47:56.894Z,26.76
2019-02-25T02:48:56.898Z,26.73
2019-02-25T02:49:56.907Z,26.73
2019-02-25T02:50:56.903Z,26.75
2019-02-25T02:51:56.905Z,26.67
2019-02-25T02:52:56.907Z,26.70
2019-02-25T02:53:56.910Z,26.65
2019-02-25T02:54:56.914Z,26.75
2019-02-25T02:55:56.914Z,26.80
2019-02-25T02:56:56.945Z,26.69
2019-02-25T02:57:56.920Z,26.75
2019-02-25T02:58:56.924Z,26.66
2019-02-25T02:59:57.028Z,26.73
2019-02-25T03:00:56.929Z,26.76
2019-02-25T03:01:56.933Z,26.70
2019-02-25T03:02:56.934Z,26.70
2019-02-25T03:03:56.935Z,26.77
2019-02-25T03:04:56.941Z,26.77
2019-02-25T03:05:56.941Z,26.76
2019-02-25T03:06:56.944Z,26.72
2019-02-25T03:07:57.096Z,26.76
2019-02-25T03:08:56.949Z,26.69
2019-02-25T03:09:58.757Z,26.73
2019-02-25T03:10:57.005Z,26.77
2019-02-25T03:11:56.957Z,26.65
2019-02-25T03:12:56.959Z,26.75
2019-02-25T03:13:56.962Z,26.73
2019-02-25T03:14:56.966Z,26.70
2019-02-25T03:15:56.968Z,26.73
2019-02-25T03:16:56.970Z,26.73
2019-02-25T03:17:56.973Z,26.76
2019-02-25T03:18:56.976Z,26.72
2019-02-25T03:19:56.980Z,26.70
2019-02-25T03:20:56.982Z,26.65
2019-02-25T03:21:56.983Z,26.67
2019-02-25T03:22:56.986Z,26.73
2019-02-25T03:23:56.988Z,26.73
2019-02-25T03:24:56.991Z,26.75
2019-02-25T03:25:57.001Z,26.72
2019-02-25T03:26:56.997Z,26.69
2019-02-25T03:27:56.999Z,26.63
2019-02-25T03:28:57.004Z,26.62
2019-02-25T03:29:57.006Z,26.76
2019-02-25T03:30:57.012Z,26.66
2019-02-25T03:31:57.013Z,26.72
2019-02-25T03:32:57.013Z,26.73
2019-02-25T03:33:57.061Z,26.73
2019-02-25T03:34:57.018Z,26.69
2019-02-25T03:35:57.039Z,26.77
2019-02-25T03:36:57.023Z,26.65
2019-02-25T03:37:57.030Z,26.76
2019-02-25T03:38:57.029Z,26.73
2019-02-25T03:39:57.132Z,26.81
2019-02-25T03:40:57.037Z,26.70
2019-02-25T03:41:57.038Z,26.75
2019-02-25T03:42:57.044Z,26.76
2019-02-25T03:43:57.057Z,26.70
2019-02-25T03:44:57.046Z,26.62
2019-02-25T03:45:57.046Z,26.70
2019-02-25T03:46:57.052Z,26.77
2019-02-25T03:47:57.053Z,26.70
2019-02-25T03:48:57.055Z,26.75
2019-02-25T03:49:57.061Z,26.76
2019-02-25T03:50:57.062Z,26.75
2019-02-25T03:51:57.063Z,26.76
2019-02-25T03:52:57.068Z,26.75
2019-02-25T03:53:57.071Z,26.67
2019-02-25T03:54:57.121Z,26.75
2019-02-25T03:55:57.075Z,26.73
2019-02-25T03:56:57.094Z,26.76
2019-02-25T03:57:57.081Z,26.80
2019-02-25T03:58:57.085Z,26.70
2019-02-25T03:59:57.136Z,26.75
2019-02-25T04:00:57.088Z,26.80
2019-02-25T04:01:57.141Z,26.67
2019-02-25T04:02:57.095Z,26.70
2019-02-25T04:03:57.104Z,26.72
2019-02-25T04:04:57.098Z,26.75
2019-02-25T04:05:57.210Z,26.72
2019-02-25T04:06:57.105Z,26.72
2019-02-25T04:07:57.107Z,26.73
2019-02-25T04:08:57.109Z,26.76
2019-02-25T04:09:57.113Z,26.75
2019-02-25T04:10:57.117Z,26.70
2019-02-25T04:11:57.117Z,26.69
2019-02-25T04:12:57.120Z,26.65
2019-02-25T04:13:57.124Z,26.66
2019-02-25T04:14:57.129Z,26.65
2019-02-25T04:15:57.128Z,26.73
2019-02-25T04:16:57.131Z,26.72
2019-02-25T04:17:57.135Z,26.70
2019-02-25T04:18:57.136Z,26.67
2019-02-25T04:19:57.139Z,26.73
2019-02-25T04:20:57.144Z,26.76
2019-02-25T04:21:57.144Z,26.75
2019-02-25T04:22:57.197Z,26.72
2019-02-25T04:23:57.149Z,26.80
2019-02-25T04:24:57.152Z,26.72
2019-02-25T04:25:57.205Z,26.75
2019-02-25T04:26:57.159Z,26.65
2019-02-25T04:27:57.312Z,26.65
2019-02-25T04:28:57.164Z,26.67
2019-02-25T04:29:57.167Z,26.70
2019-02-25T04:30:57.169Z,26.63
2019-02-25T04:31:57.172Z,26.72
2019-02-25T04:32:57.173Z,26.67
2019-02-25T04:33:57.178Z,26.67
2019-02-25T04:34:57.380Z,26.72
2019-02-25T04:35:57.181Z,26.72
2019-02-25T04:36:57.186Z,26.73
2019-02-25T04:37:57.187Z,26.76
2019-02-25T04:38:57.290Z,26.75
2019-02-25T04:39:57.192Z,26.67
2019-02-25T04:40:57.195Z,26.75
2019-02-25T04:41:57.197Z,26.69
2019-02-25T04:42:57.203Z,26.77
2019-02-25T04:43:57.203Z,26.57
2019-02-25T04:44:57.209Z,26.62
2019-02-25T04:45:57.209Z,26.70
2019-02-25T04:46:57.212Z,26.80
2019-02-25T04:47:57.217Z,26.70
2019-02-25T04:48:57.217Z,26.80
2019-02-25T04:49:57.219Z,26.69
2019-02-25T04:50:57.222Z,26.73
2019-02-25T04:51:57.224Z,26.73
2019-02-25T04:52:57.228Z,26.76
2019-02-25T04:53:57.232Z,26.75
2019-02-25T04:54:57.239Z,26.75
2019-02-25T04:55:57.236Z,26.75
2019-02-25T04:56:57.238Z,26.73
2019-02-25T04:57:57.249Z,26.73
2019-02-25T04:58:57.247Z,26.60
2019-02-25T04:59:57.246Z,26.67
2019-02-25T05:00:57.300Z,26.63
2019-02-25T05:01:57.252Z,26.75
2019-02-25T05:02:57.257Z,26.73
2019-02-25T05:03:57.257Z,26.72
2019-02-25T05:04:57.268Z,26.76
2019-02-25T05:05:57.262Z,26.75
2019-02-25T05:06:57.265Z,26.76
2019-02-25T05:07:57.271Z,26.73
2019-02-25T05:08:57.271Z,26.73
2019-02-25T05:09:57.272Z,26.70
2019-02-25T05:10:57.277Z,26.66
2019-02-25T05:11:57.389Z,26.67
2019-02-25T05:12:57.285Z,26.70
2019-02-25T05:13:57.288Z,26.62
2019-02-25T05:14:57.288Z,26.76
2019-02-25T05:15:57.346Z,26.72
2019-02-25T05:16:57.298Z,26.73
2019-02-25T05:17:57.298Z,26.73
2019-02-25T05:18:57.300Z,26.75
2019-02-25T05:19:57.356Z,26.73
2019-02-25T05:20:57.303Z,26.70
2019-02-25T05:21:57.305Z,26.75
2019-02-25T05:22:57.308Z,26.69
2019-02-25T05:23:57.311Z,26.73
2019-02-25T05:24:57.314Z,26.63
2019-02-25T05:25:57.334Z,26.81
2019-02-25T05:26:57.320Z,26.81
2019-02-25T05:27:57.330Z,26.70
2019-02-25T05:28:57.425Z,26.81
2019-02-25T05:29:57.327Z,26.73
2019-02-25T05:30:57.432Z,26.75
2019-02-25T05:31:57.334Z,26.73
2019-02-25T05:32:57.340Z,26.72
2019-02-25T05:33:57.338Z,26.73
2019-02-25T05:34:57.341Z,26.81
2019-02-25T05:35:57.342Z,26.73
2019-02-25T05:36:57.345Z,26.77
2019-02-25T05:37:57.354Z,26.69
2019-02-25T05:38:58.753Z,26.73
2019-02-25T05:39:57.354Z,26.77
2019-02-25T05:40:57.363Z,26.77
2019-02-25T05:41:57.359Z,26.76
2019-02-25T05:42:57.363Z,26.80
2019-02-25T05:43:57.365Z,26.75
2019-02-25T05:44:57.367Z,26.70
2019-02-25T05:45:57.373Z,26.80
2019-02-25T05:46:57.379Z,26.81
2019-02-25T05:47:57.383Z,26.80
2019-02-25T05:48:57.383Z,26.88
2019-02-25T05:49:57.390Z,26.87
2019-02-25T05:50:57.383Z,26.84
2019-02-25T05:51:57.387Z,26.76
2019-02-25T05:52:57.414Z,26.85
2019-02-25T05:53:57.394Z,26.77
2019-02-25T05:54:57.397Z,26.72
2019-02-25T05:55:57.399Z,26.80
2019-02-25T05:56:57.404Z,26.80
2019-02-25T05:57:57.402Z,26.77
2019-02-25T05:58:57.407Z,26.84
2019-02-25T05:59:57.416Z,26.76
2019-02-25T06:00:57.416Z,26.82
2019-02-25T06:01:57.418Z,26.80
2019-02-25T06:02:57.473Z,26.84
2019-02-25T06:03:57.419Z,26.84
2019-02-25T06:04:57.423Z,26.75
2019-02-25T06:05:57.424Z,26.80
2019-02-25T06:06:57.429Z,26.77
2019-02-25T06:07:57.432Z,26.75
2019-02-25T06:08:57.433Z,26.88
2019-02-25T06:09:57.436Z,26.87
2019-02-25T06:10:57.440Z,26.87
2019-02-25T06:11:57.444Z,26.89
2019-02-25T06:12:57.445Z,26.85
2019-02-25T06:13:57.447Z,26.88
2019-02-25T06:14:57.456Z,26.92
2019-02-25T06:15:57.452Z,26.91
2019-02-25T06:16:57.456Z,26.94
2019-02-25T06:17:57.465Z,26.99
2019-02-25T06:18:57.464Z,26.92
2019-02-25T06:19:57.464Z,26.95
2019-02-25T06:20:57.464Z,26.94
2019-02-25T06:21:57.470Z,26.91
2019-02-25T06:22:57.479Z,26.92
2019-02-25T06:23:57.476Z,26.95
2019-02-25T06:24:57.480Z,26.94
2019-02-25T06:25:57.485Z,27.00
2019-02-25T06:26:57.483Z,26.99
2019-02-25T06:27:57.487Z,27.03
2019-02-25T06:28:57.499Z,26.99
2019-02-25T06:29:57.493Z,26.91
2019-02-25T06:30:57.496Z,26.89
2019-02-25T06:31:57.496Z,26.92
2019-02-25T06:32:57.500Z,26.95
2019-02-25T06:33:57.507Z,27.06
2019-02-25T06:34:57.512Z,27.04
2019-02-25T06:35:57.520Z,27.00
2019-02-25T06:36:57.513Z,27.09
2019-02-25T06:37:57.521Z,27.02
2019-02-25T06:38:57.519Z,27.03
2019-02-25T06:39:57.522Z,27.02
2019-02-25T06:40:57.523Z,27.04
2019-02-25T06:41:57.526Z,27.02
2019-02-25T06:42:57.529Z,27.06
2019-02-25T06:43:57.534Z,27.07
2019-02-25T06:44:57.535Z,27.09
2019-02-25T06:45:57.538Z,27.03
2019-02-25T06:46:57.543Z,27.12
2019-02-25T06:47:57.548Z,27.09
2019-02-25T06:48:57.547Z,27.10
2019-02-25T06:49:57.551Z,27.13
2019-02-25T06:50:57.560Z,27.12
2019-02-25T06:51:57.555Z,27.13
2019-02-25T06:52:57.559Z,27.03
2019-02-25T06:53:57.561Z,27.10
2019-02-25T06:54:57.564Z,27.10
2019-02-25T06:55:57.566Z,27.12
2019-02-25T06:56:57.571Z,27.09
2019-02-25T06:57:57.572Z,27.10
2019-02-25T06:58:57.576Z,27.12
2019-02-25T06:59:57.585Z,27.07
2019-02-25T07:00:57.586Z,27.13
2019-02-25T07:01:57.584Z,27.03
2019-02-25T07:02:57.589Z,27.06
2019-02-25T07:03:57.589Z,27.06
2019-02-25T07:04:57.602Z,27.07
2019-02-25T07:05:57.598Z,27.17
2019-02-25T07:06:57.600Z,27.18
2019-02-25T07:07:57.601Z,27.10
2019-02-25T07:08:57.604Z,27.17
2019-02-25T07:09:57.608Z,27.12
2019-02-25T07:10:57.611Z,27.14
2019-02-25T07:11:57.613Z,27.13
2019-02-25T07:12:57.618Z,27.18
2019-02-25T07:13:57.620Z,27.19
2019-02-25T07:14:57.624Z,27.18
2019-02-25T07:15:57.627Z,27.18
2019-02-25T07:16:57.629Z,27.19
2019-02-25T07:17:57.630Z,27.10
2019-02-25T07:18:57.637Z,27.07
2019-02-25T07:19:57.637Z,27.17
2019-02-25T07:20:57.642Z,27.14
2019-02-25T07:21:57.642Z,27.09
2019-02-25T07:22:57.645Z,27.13
2019-02-25T07:23:57.649Z,27.07
2019-02-25T07:24:57.668Z,27.10
2019-02-25T07:25:57.652Z,27.03
2019-02-25T07:26:57.657Z,27.13
2019-02-25T07:27:57.661Z,27.12
2019-02-25T07:28:57.668Z,27.13
2019-02-25T07:29:57.667Z,27.13
2019-02-25T07:30:57.674Z,27.17
2019-02-25T07:31:57.672Z,27.18
2019-02-25T07:32:57.677Z,27.25
2019-02-25T07:33:57.678Z,27.18
2019-02-25T07:34:57.681Z,27.18
2019-02-25T07:35:57.683Z,27.21
2019-02-25T07:36:57.692Z,27.24
2019-02-25T07:37:57.695Z,27.19
2019-02-25T07:38:57.692Z,27.17
2019-02-25T07:39:57.697Z,27.27
2019-02-25T07:40:57.699Z,27.19
2019-02-25T07:41:57.710Z,27.19
2019-02-25T07:42:57.710Z,27.28
2019-02-25T07:43:57.710Z,27.25
2019-02-25T07:44:57.729Z,27.18
2019-02-25T07:45:57.713Z,27.22
2019-02-25T07:46:57.714Z,27.29
2019-02-25T07:47:57.722Z,27.28
2019-02-25T07:48:57.731Z,27.24
2019-02-25T07:49:57.728Z,27.25
2019-02-25T07:50:57.728Z,27.36
2019-02-25T07:51:57.731Z,27.32
2019-02-25T07:52:57.733Z,27.31
2019-02-25T07:53:57.744Z,27.37
2019-02-25T07:54:57.743Z,27.37
2019-02-25T07:56:02.293Z,27.34
2019-02-25T07:56:57.752Z,27.37
2019-02-25T07:57:57.750Z,27.32
2019-02-25T07:58:57.753Z,27.29
2019-02-25T07:59:57.755Z,27.32
2019-02-25T08:00:57.763Z,27.28
2019-02-25T08:01:57.760Z,27.32
2019-02-25T08:02:57.769Z,27.34
2019-02-25T08:03:57.766Z,27.32
2019-02-25T08:04:57.770Z,27.39
2019-02-25T08:05:57.780Z,27.29
2019-02-25T08:06:57.779Z,27.36
2019-02-25T08:07:57.779Z,27.32
2019-02-25T08:08:57.782Z,27.40
2019-02-25T08:09:57.785Z,27.40
2019-02-25T08:10:57.790Z,27.37
2019-02-25T08:11:57.791Z,27.40
2019-02-25T08:12:57.794Z,27.41
2019-02-25T08:13:57.798Z,27.46
2019-02-25T08:14:57.801Z,27.47
2019-02-25T08:15:57.805Z,27.50
2019-02-25T08:16:57.807Z,27.40
2019-02-25T08:17:57.819Z,27.41
2019-02-25T08:18:57.818Z,27.40
2019-02-25T08:19:57.820Z,27.43
2019-02-25T08:20:57.820Z,27.50
2019-02-25T08:21:57.822Z,27.51
2019-02-25T08:22:57.827Z,27.51
2019-02-25T08:23:57.829Z,27.50
2019-02-25T08:24:57.831Z,27.55
2019-02-25T08:25:57.902Z,27.60
2019-02-25T08:26:57.839Z,27.47
2019-02-25T08:27:57.846Z,27.59
2019-02-25T08:28:57.846Z,27.49
2019-02-25T08:29:57.847Z,27.55
2019-02-25T08:30:57.850Z,27.54
2019-02-25T08:31:57.854Z,27.57
2019-02-25T08:32:57.859Z,27.57
2019-02-25T08:33:57.860Z,27.59
2019-02-25T08:34:57.866Z,27.59
2019-02-25T08:35:57.870Z,27.59
2019-02-25T08:37:02.405Z,27.54
2019-02-25T08:37:57.874Z,27.57
2019-02-25T08:38:57.877Z,27.63
2019-02-25T08:39:57.879Z,27.67
2019-02-25T08:40:57.882Z,27.62
2019-02-25T08:41:57.885Z,27.54
2019-02-25T08:42:57.889Z,27.65
2019-02-25T08:43:57.890Z,27.57
2019-02-25T08:44:57.895Z,27.69
2019-02-25T08:45:57.900Z,27.59
2019-02-25T08:46:57.902Z,27.66
2019-02-25T08:47:57.905Z,27.55
2019-02-25T08:48:57.909Z,27.60
2019-02-25T08:49:57.911Z,27.63
2019-02-25T08:50:57.919Z,27.59
2019-02-25T08:51:57.919Z,27.60
2019-02-25T08:52:57.923Z,27.65
2019-02-25T08:53:57.927Z,27.63
2019-02-25T08:54:57.938Z,27.66
2019-02-25T08:55:58.405Z,27.66
2019-02-25T08:56:57.936Z,27.63
2019-02-25T08:57:57.939Z,27.70
2019-02-25T08:58:57.957Z,27.69
2019-02-25T08:59:57.941Z,27.69
2019-02-25T09:00:57.957Z,27.72
2019-02-25T09:01:57.950Z,27.62
2019-02-25T09:02:57.956Z,27.66
2019-02-25T09:03:57.957Z,27.67
2019-02-25T09:04:57.957Z,27.67
2019-02-25T09:05:57.966Z,27.69
2019-02-25T09:06:57.966Z,27.77
2019-02-25T09:07:57.967Z,27.70
2019-02-25T09:08:57.971Z,27.72
2019-02-25T09:09:57.975Z,27.72
2019-02-25T09:10:57.985Z,27.79
2019-02-25T09:11:57.982Z,27.74
2019-02-25T09:12:57.984Z,27.67
2019-02-25T09:13:57.990Z,27.75
2019-02-25T09:14:57.996Z,27.85
2019-02-25T09:15:57.994Z,27.74
2019-02-25T09:16:57.999Z,27.78
2019-02-25T09:17:58.003Z,27.79
2019-02-25T09:18:58.039Z,27.79
2019-02-25T09:19:58.007Z,27.81
2019-02-25T09:20:58.011Z,27.70
2019-02-25T09:21:58.018Z,27.84
2019-02-25T09:22:58.021Z,27.79
2019-02-25T09:23:58.022Z,27.82
2019-02-25T09:24:58.025Z,27.75
2019-02-25T09:25:58.027Z,27.78
2019-02-25T09:26:58.032Z,27.84
2019-02-25T09:27:58.037Z,27.81
2019-02-25T09:28:58.039Z,27.88
2019-02-25T09:29:58.044Z,27.90
2019-02-25T09:30:58.047Z,27.85
2019-02-25T09:31:58.053Z,27.90
2019-02-25T09:32:58.050Z,27.87
2019-02-25T09:33:58.054Z,27.88
2019-02-25T09:34:58.058Z,27.82
2019-02-25T09:35:58.061Z,27.82
2019-02-25T09:36:58.067Z,27.81
2019-02-25T09:37:58.067Z,27.93
2019-02-25T09:38:58.073Z,27.84
2019-02-25T09:39:58.074Z,27.77
2019-02-25T09:40:58.077Z,27.84
2019-02-25T09:41:58.081Z,27.82
2019-02-25T09:42:58.084Z,27.90
2019-02-25T09:43:58.088Z,27.88
2019-02-25T09:44:58.404Z,27.87
2019-02-25T09:45:58.094Z,27.79
2019-02-25T09:46:58.112Z,27.85
2019-02-25T09:47:58.101Z,27.97
2019-02-25T09:48:58.104Z,27.84
2019-02-25T09:49:58.108Z,27.84
2019-02-25T09:50:58.114Z,27.92
2019-02-25T09:51:58.112Z,27.81
2019-02-25T09:52:58.117Z,27.99
2019-02-25T09:53:58.121Z,27.84
2019-02-25T09:54:58.125Z,27.81
2019-02-25T09:55:58.133Z,27.96
2019-02-25T09:56:58.133Z,27.97
2019-02-25T09:57:58.134Z,27.82
2019-02-25T09:58:58.140Z,27.88
2019-02-25T09:59:58.139Z,27.88
2019-02-25T10:00:58.144Z,27.87
2019-02-25T10:01:58.147Z,27.84
2019-02-25T10:02:58.154Z,27.90
2019-02-25T10:03:58.154Z,27.88
2019-02-25T10:04:58.157Z,27.99
2019-02-25T10:05:58.161Z,27.90
2019-02-25T10:07:02.364Z,27.93
2019-02-25T10:07:58.167Z,27.93
2019-02-25T10:08:58.173Z,27.93
2019-02-25T10:09:58.172Z,27.93
2019-02-25T10:10:58.178Z,27.94
2019-02-25T10:11:58.180Z,27.90
2019-02-25T10:12:58.184Z,27.96
2019-02-25T10:13:58.189Z,27.97
2019-02-25T10:14:58.191Z,27.93
2019-02-25T10:15:58.198Z,27.84
2019-02-25T10:16:58.197Z,27.93
2019-02-25T10:17:58.201Z,27.90
2019-02-25T10:18:58.203Z,27.85
2019-02-25T10:19:58.206Z,27.93
2019-02-25T10:20:58.213Z,27.94
2019-02-25T10:21:58.213Z,27.99
2019-02-25T10:22:58.217Z,28.02
2019-02-25T10:23:58.221Z,27.93
2019-02-25T10:24:58.227Z,28.03
2019-02-25T10:25:58.229Z,27.93
2019-02-25T10:26:58.234Z,28.02
2019-02-25T10:27:58.235Z,27.97
2019-02-25T10:28:58.240Z,28.02
2019-02-25T10:29:58.243Z,28.04
2019-02-25T10:30:58.246Z,28.07
2019-02-25T10:32:00.011Z,27.99
2019-02-25T10:32:58.253Z,28.09
2019-02-25T10:33:58.257Z,28.02
2019-02-25T10:34:58.259Z,28.07
2019-02-25T10:35:58.259Z,28.12
2019-02-25T10:36:58.266Z,28.09
2019-02-25T10:37:58.272Z,28.14
2019-02-25T10:38:58.274Z,28.18
2019-02-25T10:39:58.278Z,28.18
2019-02-25T10:40:59.412Z,28.15
2019-02-25T10:41:59.639Z,28.19
2019-02-25T10:42:58.285Z,28.12
2019-02-25T10:44:00.130Z,28.17
2019-02-25T10:44:58.294Z,28.18
2019-02-25T10:45:58.297Z,28.21
2019-02-25T10:46:58.303Z,28.06
2019-02-25T10:47:58.903Z,28.18
2019-02-25T10:48:59.206Z,28.11
2019-02-25T10:49:59.009Z,28.14
2019-02-25T10:50:58.314Z,28.18
2019-02-25T10:51:58.315Z,28.15
2019-02-25T10:53:03.453Z,28.09
2019-02-25T10:53:58.323Z,28.19
2019-02-25T10:54:58.378Z,28.24
2019-02-25T10:55:58.333Z,28.15
2019-02-25T10:56:58.336Z,28.07
2019-02-25T10:57:59.766Z,28.12
2019-02-25T10:59:00.192Z,28.17
2019-02-25T10:59:58.345Z,28.12
2019-02-25T11:00:58.353Z,28.22
2019-02-25T11:01:58.352Z,28.11
2019-02-25T11:02:58.400Z,28.24
2019-02-25T11:03:58.358Z,28.17
2019-02-25T11:04:58.363Z,28.14
2019-02-25T11:05:59.059Z,28.14
2019-02-25T11:06:58.937Z,28.22
2019-02-25T11:07:58.374Z,28.12
2019-02-25T11:08:58.377Z,28.18
2019-02-25T11:09:58.387Z,28.15
2019-02-25T11:10:58.382Z,28.14
2019-02-25T11:12:00.121Z,28.17
2019-02-25T11:12:59.909Z,28.24
2019-02-25T11:13:58.920Z,28.24
2019-02-25T11:14:58.398Z,28.14
2019-02-25T11:15:58.399Z,28.19
2019-02-25T11:16:58.405Z,28.24
2019-02-25T11:17:58.413Z,28.22
2019-02-25T11:19:00.397Z,28.18
2019-02-25T11:19:59.083Z,28.21
2019-02-25T11:20:58.985Z,28.15
2019-02-25T11:21:58.425Z,28.27
2019-02-25T11:22:58.431Z,28.18
2019-02-25T11:23:59.122Z,28.17
2019-02-25T11:24:58.448Z,28.18
2019-02-25T11:26:00.004Z,28.15
2019-02-25T11:26:59.037Z,28.18
2019-02-25T11:27:58.443Z,28.19
2019-02-25T11:28:58.447Z,28.18
2019-02-25T11:29:58.452Z,28.18
2019-02-25T11:30:58.456Z,28.19
2019-02-25T11:31:58.457Z,28.21
2019-02-25T11:33:00.012Z,28.21
2019-02-25T11:34:00.535Z,28.18
2019-02-25T11:34:58.469Z,28.18
2019-02-25T11:35:58.471Z,28.27
2019-02-25T11:36:59.524Z,28.24
2019-02-25T11:37:59.841Z,28.14
2019-02-25T11:39:00.239Z,28.25
2019-02-25T11:39:59.833Z,28.21
2019-02-25T11:40:59.905Z,28.24
2019-02-25T11:41:58.499Z,28.17
2019-02-25T11:42:58.499Z,28.17
2019-02-25T11:43:58.507Z,28.03
2019-02-25T11:44:59.856Z,27.96
2019-02-25T11:45:58.511Z,28.06
2019-02-25T11:46:58.511Z,28.07
2019-02-25T11:47:58.515Z,28.07
2019-02-25T11:48:58.518Z,27.94
2019-02-25T11:49:58.523Z,27.97
2019-02-25T11:50:58.527Z,27.97
2019-02-25T11:51:58.531Z,27.92
2019-02-25T11:52:58.532Z,27.90
2019-02-25T11:53:59.496Z,27.90
2019-02-25T11:54:58.541Z,27.94
2019-02-25T11:55:58.542Z,27.87
2019-02-25T11:56:58.547Z,27.82
2019-02-25T11:57:58.550Z,27.82
2019-02-25T11:58:58.556Z,27.84
2019-02-25T11:59:58.558Z,27.81
2019-02-25T12:00:58.559Z,27.88
2019-02-25T12:01:58.562Z,27.87
2019-02-25T12:02:58.575Z,27.85
2019-02-25T12:03:58.572Z,27.93
2019-02-25T12:04:58.574Z,27.81
2019-02-25T12:05:58.577Z,27.85
2019-02-25T12:06:58.580Z,27.87
2019-02-25T12:07:58.584Z,27.78
2019-02-25T12:08:58.589Z,27.82
2019-02-25T12:09:58.590Z,27.81
2019-02-25T12:10:58.610Z,27.81
2019-02-25T12:11:58.606Z,27.79
2019-02-25T12:12:58.600Z,27.84
2019-02-25T12:13:58.605Z,27.81
2019-02-25T12:14:58.609Z,27.72
2019-02-25T12:15:58.610Z,27.69
2019-02-25T12:16:58.618Z,27.67
2019-02-25T12:17:58.617Z,27.82
2019-02-25T12:18:58.632Z,27.75
2019-02-25T12:19:58.624Z,27.81
2019-02-25T12:20:58.632Z,27.77
2019-02-25T12:21:58.632Z,27.66
2019-02-25T12:22:58.636Z,27.77
2019-02-25T12:23:58.637Z,27.63
2019-02-25T12:24:58.648Z,27.63
2019-02-25T12:25:58.651Z,27.66
2019-02-25T12:26:58.648Z,27.67
2019-02-25T12:27:58.651Z,27.66
2019-02-25T12:28:58.655Z,27.69
2019-02-25T12:29:58.658Z,27.74
2019-02-25T12:30:58.671Z,27.65
2019-02-25T12:31:58.665Z,27.69
2019-02-25T12:32:58.679Z,27.72
2019-02-25T12:33:58.669Z,27.65
2019-02-25T12:34:58.674Z,27.67
2019-02-25T12:35:58.675Z,27.60
2019-02-25T12:36:58.680Z,27.63
2019-02-25T12:37:58.683Z,27.59
2019-02-25T12:38:58.688Z,27.51
2019-02-25T12:39:58.690Z,27.59
2019-02-25T12:40:58.694Z,27.59
2019-02-25T12:41:58.696Z,27.51
2019-02-25T12:42:58.701Z,27.54
2019-02-25T12:43:58.706Z,27.57
2019-02-25T12:44:58.705Z,27.57
2019-02-25T12:45:58.710Z,27.62
2019-02-25T12:46:58.712Z,27.60
2019-02-25T12:47:58.718Z,27.59
2019-02-25T12:48:58.719Z,27.54
2019-02-25T12:49:58.723Z,27.54
2019-02-25T12:50:58.739Z,27.60
2019-02-25T12:51:58.730Z,27.60
2019-02-25T12:52:58.734Z,27.51